createdAt,value
2023-01-19T00:00:41.963Z,31.00
2023-01-19T00:03:16.376Z,35.60
2023-01-19T00:05:44.407Z,36.20
2023-01-19T00:08:17.777Z,30.80
2023-01-19T00:10:47.251Z,32.70
2023-01-19T00:13:15.216Z,35.90
2023-01-19T00:15:42.910Z,33.30
2023-01-19T00:18:11.151Z,34.50
2023-01-19T00:20:39.891Z,36.50
2023-01-19T00:23:10.522Z,36.30
2023-01-19T00:25:42.815Z,41.50
2023-01-19T00:28:11.386Z,38.50
2023-01-19T00:30:39.563Z,36.00
2023-01-19T00:33:07.622Z,37.40
2023-01-19T00:35:35.896Z,35.60
2023-01-19T00:38:03.686Z,37.50
2023-01-19T00:40:31.106Z,36.70
2023-01-19T00:42:59.005Z,35.30
2023-01-19T00:45:26.686Z,34.00
2023-01-19T00:47:57.478Z,36.50
2023-01-19T00:50:26.181Z,36.40
2023-01-19T00:52:54.763Z,33.10
2023-01-19T00:55:22.730Z,36.00
2023-01-19T00:57:50.602Z,38.70
2023-01-19T01:00:22.029Z,37.80
2023-01-19T01:02:50.345Z,37.40
2023-01-19T01:05:17.974Z,35.40
2023-01-19T01:07:45.733Z,34.50
2023-01-19T01:10:24.221Z,40.90
2023-01-19T01:12:53.608Z,36.70
2023-01-19T01:15:26.515Z,28.50
2023-01-19T01:17:53.892Z,34.40
2023-01-19T01:20:23.027Z,32.90
2023-01-19T01:22:51.582Z,34.30
2023-01-19T01:25:22.762Z,31.90
2023-01-19T01:27:50.305Z,37.60
2023-01-19T01:30:17.532Z,38.50
2023-01-19T01:32:44.680Z,32.90
2023-01-19T01:35:12.545Z,34.60
2023-01-19T01:37:39.689Z,33.90
2023-01-19T01:40:07.562Z,34.80
2023-01-19T01:42:35.630Z,33.90
2023-01-19T01:45:06.267Z,31.40
2023-01-19T01:47:44.599Z,36.30
2023-01-19T01:50:18.803Z,32.60
2023-01-19T01:53:07.551Z,35.90
2023-01-19T01:55:41.687Z,37.40
2023-01-19T01:58:09.206Z,40.70
2023-01-19T02:00:55.313Z,31.70
2023-01-19T02:03:23.544Z,39.40
2023-01-19T02:05:50.934Z,31.30
2023-01-19T02:08:38.362Z,34.80
2023-01-19T02:11:25.021Z,34.80
2023-01-19T02:13:52.544Z,34.20
2023-01-19T02:16:20.013Z,37.60
2023-01-19T02:18:47.748Z,33.70
2023-01-19T02:21:19.280Z,33.30
2023-01-19T02:26:20.865Z,26.40
2023-01-19T02:28:51.244Z,32.40
2023-01-19T02:31:18.745Z,36.60
2023-01-19T02:33:46.507Z,31.20
2023-01-19T02:36:15.642Z,32.20
2023-01-19T02:38:43.675Z,34.10
2023-01-19T02:41:12.738Z,33.00
2023-01-19T02:43:40.435Z,31.70
2023-01-19T02:46:08.794Z,34.30
2023-01-19T02:48:36.589Z,32.50
2023-01-19T02:51:12.327Z,31.50
2023-01-19T02:53:53.813Z,32.20
2023-01-19T02:56:40.827Z,30.70
2023-01-19T02:59:26.919Z,28.20
2023-01-19T03:02:18.029Z,30.40
2023-01-19T03:05:11.196Z,32.70
2023-01-19T03:08:03.707Z,28.60
2023-01-19T03:10:34.773Z,33.10
2023-01-19T03:13:10.946Z,29.70
2023-01-19T03:15:59.563Z,30.00
2023-01-19T03:18:28.477Z,33.30
2023-01-19T03:20:57.180Z,30.70
2023-01-19T03:23:26.524Z,31.50
2023-01-19T03:25:56.836Z,35.20
2023-01-19T03:28:26.894Z,27.80
2023-01-19T03:31:00.980Z,32.40
2023-01-19T03:33:37.697Z,29.60
2023-01-19T03:36:27.782Z,29.50
2023-01-19T03:38:55.438Z,28.90
2023-01-19T03:41:23.168Z,29.00
2023-01-19T03:43:51.587Z,33.70
2023-01-19T03:46:19.539Z,28.60
2023-01-19T03:48:47.316Z,29.50
2023-01-19T03:51:14.977Z,27.80
2023-01-19T03:53:42.536Z,33.40
2023-01-19T03:56:18.389Z,28.00
2023-01-19T03:58:46.323Z,28.70
2023-01-19T04:01:15.267Z,29.60
2023-01-19T08:12:44.633Z,22.40
2023-01-19T08:15:12.814Z,23.90
2023-01-19T08:17:40.790Z,18.80
2023-01-19T08:20:09.647Z,21.90
2023-01-19T08:22:47.876Z,20.70
2023-01-19T08:25:27.928Z,26.00
2023-01-19T08:27:57.034Z,17.00
2023-01-19T08:30:31.460Z,15.70
2023-01-19T08:33:04.591Z,23.40
2023-01-19T08:36:08.765Z,21.30
2023-01-19T08:38:36.821Z,18.20
2023-01-19T08:41:04.699Z,20.30
2023-01-19T08:43:34.042Z,21.10
2023-01-19T08:46:03.988Z,15.70
2023-01-19T08:48:31.866Z,20.00
2023-01-19T08:51:02.498Z,24.00
2023-01-19T08:53:30.156Z,19.20
2023-01-19T08:56:00.144Z,22.00
2023-01-19T08:58:27.735Z,19.50
2023-01-19T09:01:24.494Z,17.80
2023-01-19T09:04:30.551Z,18.40
2023-01-19T09:06:58.614Z,20.00
2023-01-19T09:09:26.579Z,21.10
2023-01-19T09:11:54.942Z,17.40
2023-01-19T09:14:22.625Z,18.40
2023-01-19T09:16:52.672Z,16.00
2023-01-19T09:19:20.193Z,18.90
2023-01-19T09:21:47.959Z,19.00
2023-01-19T09:24:15.451Z,27.30
2023-01-19T09:26:43.359Z,19.10
2023-01-19T09:29:11.154Z,16.90
2023-01-19T09:31:40.556Z,20.40
2023-01-19T09:34:08.323Z,19.10
2023-01-19T09:36:38.679Z,19.20
2023-01-19T09:39:07.677Z,18.40
2023-01-19T09:41:37.274Z,18.20
2023-01-19T09:44:05.022Z,23.60
2023-01-19T09:46:42.301Z,19.50
2023-01-19T09:49:16.829Z,21.60
2023-01-19T09:51:46.932Z,23.10
2023-01-19T09:54:45.653Z,20.50
2023-01-19T09:57:13.894Z,17.70
2023-01-19T09:59:43.951Z,21.00
2023-01-19T10:02:18.768Z,18.40
2023-01-19T10:04:52.586Z,24.60
2023-01-19T10:07:45.497Z,17.40
2023-01-19T10:10:20.849Z,16.30
2023-01-19T10:13:32.327Z,18.30
2023-01-19T10:16:42.811Z,15.80
2023-01-19T10:19:46.426Z,21.00
2023-01-19T10:22:24.821Z,20.60
2023-01-19T10:24:57.491Z,21.60
2023-01-19T10:27:29.614Z,21.60
2023-01-19T10:29:57.947Z,20.10
2023-01-19T10:32:27.351Z,22.30
2023-01-19T10:34:55.302Z,18.90
2023-01-19T10:37:23.075Z,19.90
2023-01-19T10:40:09.804Z,14.10
2023-01-19T10:42:40.161Z,14.50
2023-01-19T10:45:21.500Z,20.80
2023-01-19T10:47:49.481Z,19.40
2023-01-19T10:50:33.810Z,16.30
2023-01-19T10:53:04.267Z,16.30
2023-01-19T10:55:35.021Z,15.90
2023-01-19T10:58:04.163Z,19.00
2023-01-19T11:00:43.123Z,14.10
2023-01-19T11:03:31.978Z,13.50
2023-01-19T11:06:15.885Z,13.10
2023-01-19T11:08:47.917Z,14.70
2023-01-19T11:11:16.398Z,10.90
2023-01-19T11:13:44.707Z,13.30
2023-01-19T11:16:29.677Z,10.60
2023-01-19T11:19:18.941Z,10.90
2023-01-19T11:21:46.602Z,10.80
2023-01-19T11:24:16.688Z,17.00
2023-01-19T11:26:51.501Z,15.00
2023-01-19T11:29:26.281Z,10.30
2023-01-19T11:31:54.703Z,10.70
2023-01-19T11:34:23.676Z,14.70
2023-01-19T11:37:05.644Z,11.60
2023-01-19T11:39:35.714Z,12.50
2023-01-19T11:42:04.246Z,10.70
2023-01-19T11:44:37.450Z,11.20
2023-01-19T11:47:06.805Z,11.50
2023-01-19T11:49:43.824Z,10.70
2023-01-19T11:52:24.381Z,14.30
2023-01-19T11:55:00.547Z,11.70
2023-01-19T11:57:27.995Z,12.10
2023-01-19T11:59:55.693Z,11.70
2023-01-19T12:02:26.805Z,12.40
2023-01-19T12:07:30.606Z,15.70
2023-01-19T12:10:32.292Z,11.50
2023-01-19T12:13:00.264Z,19.00
2023-01-19T12:15:39.840Z,13.50
2023-01-19T12:18:09.182Z,14.70
2023-01-19T12:20:45.289Z,12.20
2023-01-19T12:23:31.654Z,10.50
2023-01-19T12:26:05.169Z,12.00
2023-01-19T12:28:34.458Z,9.10
2023-01-19T12:31:02.140Z,11.50
2023-01-19T12:33:34.910Z,12.40
2023-01-19T12:36:35.742Z,9.10
2023-01-19T12:39:20.619Z,12.90
2023-01-19T12:41:48.976Z,8.80
2023-01-19T12:44:20.954Z,11.00
2023-01-19T12:46:54.891Z,12.40
2023-01-19T12:49:29.387Z,12.00
2023-01-19T12:52:23.549Z,10.30
2023-01-19T12:54:56.958Z,10.20
2023-01-19T12:57:33.013Z,10.40
2023-01-19T13:00:24.177Z,12.10
2023-01-19T14:14:30.096Z,17.90
2023-01-19T14:16:58.054Z,12.70
2023-01-19T14:19:26.105Z,15.10
2023-01-19T14:22:01.472Z,15.00
2023-01-19T14:24:37.473Z,15.90
2023-01-19T14:27:24.725Z,19.10
2023-01-19T14:29:54.235Z,20.10
2023-01-19T14:32:25.175Z,18.20
2023-01-19T14:35:12.889Z,17.50
2023-01-19T14:37:48.133Z,16.70
2023-01-19T14:40:18.807Z,17.30
2023-01-19T14:42:52.766Z,23.00
2023-01-19T14:45:40.915Z,16.80
2023-01-19T14:48:19.117Z,15.60
2023-01-19T14:51:01.930Z,15.10
2023-01-19T14:53:37.158Z,17.40
2023-01-19T14:56:05.992Z,16.40
2023-01-19T14:58:34.408Z,25.00
2023-01-19T15:01:02.385Z,17.20
2023-01-19T15:03:44.395Z,16.70
2023-01-19T15:06:21.802Z,16.30
2023-01-19T15:08:50.541Z,20.60
2023-01-19T15:11:27.964Z,31.90
2023-01-19T15:13:55.953Z,17.00
2023-01-19T15:16:25.245Z,17.30
2023-01-19T15:18:53.020Z,24.00
2023-01-19T15:21:23.888Z,23.30
2023-01-19T15:23:53.789Z,22.30
2023-01-19T15:26:23.912Z,19.60
2023-01-19T15:28:51.742Z,16.80
2023-01-19T15:31:21.372Z,21.20
2023-01-19T15:33:49.146Z,24.50
2023-01-19T15:36:19.472Z,21.40
2023-01-19T15:38:47.533Z,24.10
2023-01-19T15:41:30.218Z,21.60
2023-01-19T15:43:58.140Z,25.90
2023-01-19T15:46:26.275Z,25.00
2023-01-19T15:48:53.902Z,22.60
2023-01-19T15:51:23.319Z,21.40
2023-01-19T15:53:51.308Z,25.20
2023-01-19T15:56:25.148Z,20.20
2023-01-19T15:58:53.272Z,21.80
2023-01-19T16:01:31.782Z,22.40
2023-01-19T16:04:01.463Z,19.90
2023-01-19T16:06:30.083Z,21.70
2023-01-19T16:09:01.759Z,22.40
2023-01-19T16:11:33.627Z,24.50
2023-01-19T16:16:29.794Z,23.60
2023-01-19T16:18:58.068Z,23.70
2023-01-19T16:21:25.796Z,24.10
2023-01-19T16:23:54.174Z,24.50
2023-01-19T16:26:25.000Z,26.70
2023-01-19T16:28:52.753Z,29.60
2023-01-19T16:31:20.536Z,23.70
2023-01-19T16:33:48.485Z,27.30
2023-01-19T16:36:24.263Z,30.20
2023-01-19T16:38:52.307Z,26.20
2023-01-19T16:41:20.486Z,27.90
2023-01-19T16:43:53.298Z,24.40
2023-01-19T16:46:32.857Z,25.40
2023-01-19T16:49:03.351Z,26.20
2023-01-19T16:51:31.400Z,27.20
2023-01-19T16:54:00.119Z,28.70
2023-01-19T16:56:28.066Z,25.60
2023-01-19T16:58:56.652Z,27.30
2023-01-19T17:01:25.597Z,31.10
2023-01-19T17:03:53.561Z,29.20
2023-01-19T17:06:24.867Z,27.20
2023-01-19T17:08:53.051Z,29.30
2023-01-19T17:11:22.746Z,29.20
2023-01-19T17:13:53.150Z,27.90
2023-01-19T17:16:21.687Z,27.00
2023-01-19T17:18:49.601Z,31.40
2023-01-19T17:21:18.391Z,34.20
2023-01-19T17:23:47.901Z,31.10
2023-01-19T17:26:16.083Z,28.60
2023-01-19T17:28:44.346Z,31.60
2023-01-19T17:31:13.978Z,28.60
2023-01-19T17:33:44.408Z,32.40
2023-01-19T17:36:17.469Z,32.20
2023-01-19T17:38:45.596Z,34.70
2023-01-19T17:41:14.596Z,27.60
2023-01-19T17:43:42.705Z,35.80
2023-01-19T17:46:10.837Z,26.60
2023-01-19T17:48:38.845Z,26.90
2023-01-19T17:51:08.965Z,26.50
2023-01-19T17:53:38.540Z,32.60
2023-01-19T17:56:07.844Z,33.50
2023-01-19T17:58:35.564Z,29.80
2023-01-19T18:01:14.226Z,28.80
2023-01-19T18:03:42.352Z,32.40
2023-01-19T18:06:10.597Z,30.10
2023-01-19T18:08:39.834Z,35.30
2023-01-19T18:11:07.650Z,31.80
2023-01-19T18:13:35.841Z,30.60
2023-01-19T18:16:05.802Z,27.10
2023-01-19T18:18:34.545Z,27.50
2023-01-19T18:21:04.260Z,32.50
2023-01-19T18:23:33.883Z,29.10
2023-01-19T18:26:08.826Z,30.50
2023-01-19T18:28:36.710Z,30.30
2023-01-19T18:31:10.013Z,29.00
2023-01-19T18:33:40.841Z,30.50
2023-01-19T18:36:09.466Z,32.30
2023-01-19T18:38:38.138Z,26.00
2023-01-19T18:41:08.517Z,26.90
2023-01-19T18:43:36.506Z,35.10
2023-01-19T18:46:04.515Z,35.50
2023-01-19T18:48:32.586Z,30.70
2023-01-19T18:51:05.066Z,32.70
2023-01-19T18:53:32.733Z,30.90
2023-01-19T18:56:02.258Z,35.00
2023-01-19T18:58:31.803Z,29.20
2023-01-19T19:01:00.303Z,31.90
2023-01-19T19:03:28.385Z,31.10
2023-01-19T19:05:57.521Z,29.10
2023-01-19T19:08:25.414Z,33.90
2023-01-19T19:10:53.415Z,34.40
2023-01-19T19:13:22.404Z,29.30
2023-01-19T19:15:52.774Z,32.50
2023-01-19T19:18:20.810Z,36.40
2023-01-19T19:20:48.817Z,32.00
2023-01-19T19:23:16.927Z,31.40
2023-01-19T19:25:44.741Z,34.40
2023-01-19T19:28:12.677Z,39.80
2023-01-19T19:30:42.008Z,41.50
2023-01-19T19:33:09.848Z,36.60
2023-01-19T19:35:37.653Z,35.30
2023-01-19T19:38:05.582Z,39.90
2023-01-19T19:40:33.452Z,37.20
2023-01-19T19:43:01.425Z,35.90
2023-01-19T19:45:29.286Z,37.90
2023-01-19T19:47:57.876Z,38.10
2023-01-19T19:50:25.732Z,41.40
2023-01-19T19:52:54.051Z,38.80
2023-01-19T19:55:22.369Z,37.80
2023-01-19T19:57:50.979Z,41.50
2023-01-19T20:00:19.621Z,42.80
2023-01-19T20:02:47.504Z,38.00
2023-01-19T20:05:15.878Z,39.40
2023-01-19T20:07:47.587Z,39.60
2023-01-19T20:10:15.533Z,46.10
2023-01-19T20:12:43.483Z,43.10
2023-01-19T20:15:12.827Z,43.70
2023-01-19T20:17:40.929Z,42.60
2023-01-19T20:20:10.360Z,39.60
2023-01-19T20:22:38.227Z,37.10
2023-01-19T20:25:07.533Z,37.20
2023-01-19T20:27:35.912Z,39.00
2023-01-19T20:30:04.266Z,43.50
2023-01-19T20:32:32.562Z,42.00
2023-01-19T20:35:01.146Z,41.60
2023-01-19T20:37:28.891Z,43.70
2023-01-19T20:39:58.496Z,37.80
2023-01-19T20:42:26.793Z,45.50
2023-01-19T20:44:55.989Z,45.20
2023-01-19T20:47:24.879Z,42.90
2023-01-19T20:49:52.963Z,47.30
2023-01-19T20:52:23.379Z,42.30
2023-01-19T20:54:52.571Z,41.10
2023-01-19T20:57:20.372Z,39.80
2023-01-19T20:59:48.204Z,42.30
2023-01-19T21:02:17.984Z,46.00
2023-01-19T21:04:45.575Z,47.60
2023-01-19T21:07:13.345Z,42.50
2023-01-19T21:09:41.045Z,50.30
2023-01-19T21:12:09.992Z,46.50
2023-01-19T21:14:37.963Z,46.60
2023-01-19T21:17:05.628Z,48.00
2023-01-19T21:19:33.513Z,48.40
2023-01-19T21:22:02.110Z,47.50
2023-01-19T21:24:30.149Z,42.80
2023-01-19T21:26:57.803Z,53.00
2023-01-19T21:29:25.516Z,46.90
2023-01-19T21:31:53.678Z,49.30
2023-01-19T21:34:21.722Z,48.50
2023-01-19T21:36:50.101Z,45.90
2023-01-19T21:39:18.073Z,45.60
2023-01-19T21:41:46.146Z,53.00
2023-01-19T21:44:14.817Z,47.70
2023-01-19T21:46:42.885Z,47.10
2023-01-19T21:49:16.046Z,49.30
2023-01-19T21:51:45.138Z,49.50
2023-01-19T21:54:13.242Z,54.80
2023-01-19T21:56:43.790Z,53.50
2023-01-19T21:59:13.388Z,51.90
2023-01-19T22:01:41.768Z,49.10
2023-01-19T22:04:09.528Z,54.00
2023-01-19T22:06:37.178Z,44.80
2023-01-19T22:09:05.781Z,45.20
2023-01-19T22:11:33.197Z,48.50
2023-01-19T22:14:00.779Z,50.70
2023-01-19T22:16:29.166Z,53.10
2023-01-19T22:18:59.734Z,50.80
2023-01-19T22:21:32.927Z,47.50
2023-01-19T22:24:01.406Z,44.70
2023-01-19T22:26:30.352Z,47.00
2023-01-19T22:28:59.695Z,45.70
2023-01-19T22:31:28.399Z,56.60
2023-01-19T22:33:56.631Z,49.90
2023-01-19T22:36:26.224Z,49.80
2023-01-19T22:38:54.016Z,51.20
2023-01-19T22:41:26.587Z,48.60
2023-01-19T22:43:56.575Z,46.40
2023-01-19T22:46:25.652Z,44.90
2023-01-19T22:48:53.483Z,44.70
2023-01-19T22:51:22.833Z,43.80
2023-01-19T22:53:50.704Z,44.80
2023-01-19T22:56:23.178Z,47.40
2023-01-19T22:58:51.253Z,44.10
2023-01-19T23:01:26.815Z,44.60
2023-01-19T23:03:54.914Z,46.70
2023-01-19T23:06:24.118Z,49.10
2023-01-19T23:08:51.831Z,50.20
2023-01-19T23:11:21.327Z,44.50
2023-01-19T23:13:49.205Z,45.90
2023-01-19T23:16:16.859Z,44.80
2023-01-19T23:18:44.722Z,42.50
2023-01-19T23:21:14.018Z,42.20
2023-01-19T23:23:41.994Z,50.70
2023-01-19T23:26:19.900Z,40.90
2023-01-19T23:28:47.788Z,40.20
2023-01-19T23:31:22.600Z,45.90
2023-01-19T23:33:51.478Z,43.00
2023-01-19T23:36:19.475Z,42.50
2023-01-19T23:38:51.313Z,54.80
2023-01-19T23:41:20.402Z,44.50
2023-01-19T23:43:48.117Z,52.60
2023-01-19T23:46:16.359Z,51.60
2023-01-19T23:48:44.921Z,43.20
2023-01-19T23:51:39.434Z,45.80
2023-01-19T23:54:06.923Z,44.00
2023-01-19T23:56:35.780Z,50.20
2023-01-19T23:59:10.983Z,52.50
